Latest METARs, TAFs and NOTAMs for RCSS


---------------------------------------------------------------------------
	(OBSERVATIONS)
RCSS 171400Z 10014KT 9999 FEW006 SCT018 BKN035 17/15 Q1020 NOSIG
    RMK A3014=
RCSS 171330Z 10014KT 9999 -DZ FEW006 SCT018 BKN035 17/15 Q1020
    NOSIG RMK A3014=
RCSS 171300Z 10016KT 9999 -DZ FEW006 BKN018 BKN030 17/15 Q1020
    NOSIG RMK A3013=
RCSS 171233Z 10016KT 9999 -DZ FEW006 BKN016 BKN025 17/15 Q1020
    NOSIG RMK A3014=
RCSS 171230Z 09015KT 9999 VCSH FEW006 BKN016 BKN025 17/15 Q1020
    NOSIG RMK A3014=
RCSS 171200Z 10015KT 9999 VCSH FEW006 BKN016 BKN025 17/15 Q1020
    NOSIG RMK A3013=
RCSS 171130Z 10014KT 9999 VCSH FEW006 SCT016 BKN025 17/15 Q1020
    NOSIG RMK A3013=
---------------------------------------------------------------------------
	(TERMINAL AREA FORECAST)
RCSS 171100Z 1712/1812 10012KT 8000 FEW008 BKN020 BKN032
    TEMPO 1720/1802 12006KT 5000 RA SCT007 BKN011 OVC025
    TEMPO 1802/1808 08006KT=
---------------------------------------------------------------------------
	(NOTAMS)


RCSS A0098/19 REF AIP SUP 01/19 DATED 15 JAN 2019, UPDATE CONSTRUCTION
    WORK INFORMATION ON RWY 10/28 AND STRIP AT TAIPEI/SONGSHAN
    AIRPORT. DETAILED INFO REF EAIP WEBSITE HTTP://EAIP.CAA.GOV.TW.
    15 JAN 08:47 2019 UNTIL 26 OCT 04:25 2019. CREATED: 15 JAN
    08:47 2019

RCSS A0120/19 A TOWER CRANE ERECTED DUE TO WIP, THE INFO AS FLW:
    1. LCA: INT OF SONGHE STREET AND LANE 221, RAOHE STREET,
    SONGSHAN DISTRICT, TAIPEI CITY 2. COORD: 250304.4N/1213435.1E
    3. HGT: 118.155M AMSL 4. WX COND: REPORTED AT RCSS AD IS
    VMC, CEILING ABOVE 1500FT. 5. OBST LGT: MEDIUM-INTENSITY
    TYPE B OBST LGT ON TOP. 2300-1000, 19 JAN 23:00 2019 UNTIL
    19 APR 10:00 2019. CREATED: 17 JAN 03:55 2019

RCSS A0165/19 UNMANNED ACFT WILL BE RELEASED: 1.LCA OF TKOF/LDG:
    XINYI DISTRICT, TAIPEI CITY 2.COOR TEL: 0925-601300 3.AREA
    AS FLW: GEO: 250122N 1213333E 250120N 1213348E 250101N 1213403E
    250100N 1213339E 250122N 1213333E. SFC - 1900FT AMSL, 2200-1400,
    22 JAN 22:00 2019 UNTIL 31 MAR 14:00 2019. CREATED: 21 JAN
    09:04 2019

RCSS A0166/19 UNMANNED ACFT WILL BE RELEASED: 1.LCA OF TKOF/LDG:
    DA-AN DISTRICT, TAIPEI CITY 2.COOR TEL: 0925-601300 3.AREA
    AS FLW: GEO: 250201N 1213156E 250201N 1213217E 250132N 1213215E
    250135N 1213159E 250201N 1213156E. SFC - 1900FT AMSL, 2200-1400,
    22 JAN 22:00 2019 UNTIL 31 MAR 14:00 2019. CREATED: 21 JAN
    09:06 2019

RCSS A0167/19 UNMANNED ACFT WILL BE RELEASED: 1.LCA OF TKOF/LDG:
    THE GRAND HOTEL, ZHONGSHAN DISTRICT, TAIPEI CITY 2.COOR TEL:
    0925-601300 3.AREA AS FLW: GEO: 250448N 1213131E 250446N
    1213141E 250437N 1213137E 250440N 1213131E 250448N 1213131E.
    SFC - 1900FT AMSL, 2200-1400, 22 JAN 22:00 2019 UNTIL 31
    MAR 14:00 2019. CREATED: 21 JAN 09:07 2019

RCSS A0168/19 UNMANNED ACFT WILL BE RELEASED: 1.LCA OF TKOF/LDG:
    NATIONAL REVOLUTIONARY MARTYRS' SHRINE, ZHONGSHAN DISTRICT,
    TAIPEI CITY 2.COOR TEL: 0925-601300 3.AREA AS FLW: GEO: 250452N
    1213155E 250451N 1213200E 250440N 1213203E 250440N 1213156E
    250452N 1213155E. SFC - 1900FT AMSL, 2200-1400, 22 JAN 22:00
    2019 UNTIL 31 MAR 14:00 2019. CREATED: 21 JAN 09:09 2019

RCSS A0235/19 UNMANNED ACFT WILL BE RELEASED: 1.LCA OF TKOF/LDG:
    ZHONGZHENG DISTRICT, TAIPEI CITY 2.COOR TEL: 0978-815968
    3.AREA AS FLW: GEO: 250218N 1213140E 250239N 1213146E 250238N
    1213151E 250217N 1213144E 250218N 1213140E. SFC - 200FT AMSL,
    23 MAR 20:00 2019 UNTIL 24 MAR 04:00 2019. CREATED: 30 JAN
    07:00 2019

RCSS A0277/19 AIR EXER WILL TAKE PLACE: 1.EXER MAY BE SUSPENDED
    DUE TO CIVIL AND MIL TFC. 2.COOR TEL: 0958-188951 3.AREA
    AS FLW: GEO: PSN ARC 250312N 1213625E, RADIUS 3NM. SFC -
    1000FT AMSL, 0600-0800, 06 MAR 06:00 2019 UNTIL 07 MAR 08:00
    2019. CREATED: 11 FEB 08:29 2019

RCSS A0310/19 REF AIP SUP 15/17 DATED 11 DEC 2017, A TOWER CRANE
    IS ERECTED BESIDE LANE 185,LIAONING STREET,ZHONGSHAN DISTRICT,TAIPEI
    CITY. END DATE PROLONGED TO 30 APR 2019, 1000UTC. THE REST
    NC. 13 FEB 08:26 2019 UNTIL 30 APR 10:00 2019 ESTIMATED.
    CREATED: 13 FEB 08:26 2019

RCSS A0318/19 A TOWER CRANE ERECTED DUE TO WIP, THE INFO AS FLW:
    1. LCA: OPPOSITE NR 45, LANE 46, GUANGFU SOUTH ROAD, SONGSHAN
    DISTRICT, TAIPEI CITY 2. COORD: 250244.31N/1213316.22E 3.
    HGT: 119.49M AMSL 4. WX COND: REPORTED AT RCSS AD IS VMC,
    CEILING ABOVE 1500FT. 5. OBST LGT: MEDIUM-INTENSITY TYPE
    A OBST LGT ON TOP. 0000-0900, 09 MAR 00:00 2019 UNTIL 06
    JUN 09:00 2019. CREATED: 14 FEB 07:37 2019

RCSS A0319/19 UNMANNED ACFT WILL BE RELEASED: 1.LCA OF TKOF/LDG:
    TAIPEI CITY HALL PLAZA 2.COOR TEL: 0975-290039 3.AREA AS
    FLW: GEO: 250217N 1213320E 250216N 1213349E 250214N 1213349E
    250215N 1213320E 250217N 1213320E. SFC - 200FT AMSL, 27 APR
    20:00 2019 UNTIL 28 APR 04:00 2019. CREATED: 14 FEB 07:57
    2019

RCSS A0320/19 UNMANNED ACFT WILL BE RELEASED: 1.LCA OF TKOF/LDG:
    ZHONGZHENG DISTRICT, TAIPEI CITY 2.COOR TEL: 0978-815968
    3.AREA AS FLW: GEO: 250218N 1213140E 250239N 1213146E 250238N
    1213151E 250217N 1213144E 250218N 1213140E. SFC - 200FT AMSL,
    27 APR 20:00 2019 UNTIL 28 APR 04:00 2019. CREATED: 14 FEB
    08:00 2019

RCSS A0330/19 UNMANNED ACFT WILL BE RELEASED: 1.LCA OF TKOF/LDG:
    FUXING ELEMENTARY SCHOOL, WANHUA DISTRICT, TAIPEI CITY 2.COOR
    TEL: 0912-058131, 0986-183693 3.AREA AS FLW: GEO: 250252N
    1213054E 250235N 1213035E 250215N 1213026E 250216N 1213024E
    250256N 1213033E 250252N 1213054E. SFC - 300FT AMSL, 15 FEB
    16:00 2019 UNTIL 24 FEB 15:59 2019. CREATED: 15 FEB 09:21
    2019

RCSS A0335/19 PRKG BAY NR 8 CLSD DUE TO WIP. 17 FEB 14:40 2019
    UNTIL 17 MAY 14:40 2019. CREATED: 15 FEB 10:17 2019

RCSS A0717/18 REF AIP SUP 03/18 DATED 16 MAR 2018, A LIGHTED
    TOWER CRANE ERECTED BESIDE NR 133, DUNHUA NORTH ROAD, IN
    CIRCLING AREA OF TAIPEI/SONGSHAN AIRPORT. THE RELATED INFO
    AS FLW: 1. COORD: 250311.86N/1213258.0E 2. HGT:131.997M AMSL
    3. OPR HR: DAILY DURING 2200-1300 UTC, AND WX COND REPORTED
    AT RCSS AD IS VMC. 4. MEDIUM-INTENSITY TYPE A AND TYPE B
    DUAL OBST LGT ON TOP. 16 MAR 03:50 2018 UNTIL 20 MAY 13:00
    2019 ESTIMATED. CREATED: 16 MAR 03:51 2018

RCSS A1533/18 REF AIP SUP 06/18 DATED 17 MAY 2018, WEF 30 NOV
    2018 UNTIL 30 JAN 2020, A TOWER CRANE IS ERECTED NEAR INTERSECTION
    OF NINGXIA ROAD AND LIANGZHOU STREET, DATONG DISTRICT, TAIPEI
    CITY. THE RELATED INFO IS AS FLW: 1.COORD: 250339.7N/1213050.4E
    2.HGT: 112.59M AMSL 3.OPR HR: DAILY 0000-1000UTC AND WX COND
    REPORTED AT RCSS AD IS VMC 4.OBST LGT: MEDIUM-INTENSITY TYPE
    B OBST LGT ON TOP. 30 NOV 00:00 2018 UNTIL 30 JAN 10:00 2020
    ESTIMATED. CREATED: 17 MAY 04:56 2018

RCSS A1888/18 REF AIP SUP 08/18 DATED 07 JUN 2018, WIE UNTIL
    13 APR 2019, 1000UTC, TWO TOWER CRANES ARE ERECTED BESIDE
    LANE 185, JINGMAO SECOND ROAD, NANGANG DISTRICT, TAIPEI CITY.
    THE RELATED INFO IS AS FLW: 1. COORD: 250338.5N/1213657.7E
    250338.0N/1213656.3E 2. HGT: 138.03M AMSL 3. OPR HR: DAILY
    0000-1000UTC AND WX COND REPORTED AT RCSS AD IS VMC. 4. OBST
    LGT: MEDIUM-INTENSITY TYPE B OBST LGT ON TOP. 07 JUN 08:54
    2018 UNTIL 13 APR 10:00 2019. CREATED: 07 JUN 08:54 2018

RCSS A3186/18 REF AIP SUP 11/18 DATED 30 AUG 2018, WEF 10 OCT
    2018, 2300UTC UNTIL 11 JAN 2020, 1030UTC, A TOWER CRANE IS
    ERECTED NEAR INT OF SECTION 3, CHENGDE ROAD AND HAMI STREET,
    DATONG DISTRICT, TAIPEI CITY. THE RELATED INFO IS AS FLW:
    1.COORD: 250423.8N/1213111.5E 2.HGT: 70.9M AMSL 3.OPR HR:DAILY
    2300-1030UTC AND WX COND REPORTED AT RCSS AD IS VMC. 4.OBST
    LGT: MEDIUM-INTENSITY TYPE B OBST LGT ON TOP. 10 OCT 23:00
    2018 UNTIL 11 JAN 10:30 2020. CREATED: 30 AUG 07:53 2018

RCSS A3277/18 REF AIP SUP 12/18 DATED 06 SEP 2018,WIE UNTIL 15
    JUL 2019,0900UTC, A TOWER CRANE IS ERECTED NEAR INT OF DUNHUA
    SOUTH ROAD AND CIVIC BOULEVARD, DAAN DISTRICT, TAIPEI CITY.
    THE RELATED INFO IS AS FLW: 1.COORD: 250240.1N/1213254.2E
    2.HGT: 137.6M AMSL 3.OPR HR:DAILY 0000-0900UTC AND WX COND
    REPORTED AT RCSS AD IS VMC. 4.OBST LGT: MEDIUM-INTENSITY
    TYPE A OBST LGT ON TOP. 06 SEP 07:13 2018 UNTIL 15 JUL 09:00
    2019. CREATED: 06 SEP 07:13 2018

RCSS A3852/18 REF AIP SUP 15/18 DATED 17 OCT 2018, WEF 14 MAR
    2019, 0000UTC UNTIL 30 JUN 2020, 1000UTC, TWO TOWER CRANES
    ARE ERECTED AT INT OF WENDE ROAD AND ALLEY 25, LANE 92, YANGGUANG
    STREET, NEIHU DISTRICT, TAIPEI CITY. THE RELATED INFO IS
    AS FLW: 1.COORD: 250434.9N/1213502.2E 250434.8N/1213503.0E
    2.HGT: 140.8M AMSL 3.OPR HR:DAILY 0000-1000UTC AND WX COND
    REPORTED AT RCSS AD IS VMC. 4.OBST LGT: MEDIUM-INTENSITY
    TYPE A OBST LGT ON TOP. 14 MAR 00:00 2019 UNTIL 30 JUN 10:00
    2020 ESTIMATED. CREATED: 17 OCT 07:53 2018

RCSS A4371/18 UNMANNED ACFT WILL BE RELEASED: 1.LCA OF TKOF/LDG:
    TAIPEI MUSIC CENTER, NANGANG DISTRICT, TAIPEI CITY 2.COOR
    TEL: 0921-103451 3.AREA AS FLW: GEO: 250306N 1213613E 250303N
    1213544E 250306N 1213543E 250310N 1213613E 250306N 1213613E.
    SFC - 500FT AMSL, 0000-0900, 01 DEC 00:00 2018 UNTIL 22 FEB
    09:00 2019. CREATED: 29 NOV 09:49 2018

RCSS A4394/18 UNMANNED ACFT WILL BE RELEASED: 1.LCA OF TKOF/LDG:
    TAIPEI/SONGSHAN AIRPORT 2.COOR TEL: 0910-313897 3.AREA AS
    FLW: GEO: 250416N 1213315E 250414N 1213406E 250358N 1213355E
    250351N 1213314E 250416N 1213315E. SFC - 100FT AMSL, 2200-0900,
    04 DEC 22:00 2018 UNTIL 28 FEB 09:00 2019. CREATED: 03 DEC
    10:14 2018

RCSS A4409/18 UNMANNED ACFT WILL BE RELEASED: 1.LCA OF TKOF/LDG:
    TAIPEI MUSIC CENTER, NANGANG DISTRICT, TAIPEI CITY 2.COOR
    TEL: 0937-315004 3.AREA AS FLW: GEO: 250306N 1213613E 250302N
    1213544E 250316N 1213541E 250313N 1213609E 250306N 1213613E.
    SFC - 1000FT AMSL, 0000-0900, 06 DEC 00:00 2018 UNTIL 28
    FEB 09:00 2019. CREATED: 04 DEC 10:07 2018

RCSS A4481/18 IAP LOC RWY10 IS SUSPENDED. 14 DEC 07:31 2018 UNTIL
    10 MAR 23:59 2019 ESTIMATED. CREATED: 14 DEC 07:31 2018

---------------------------------------------------------------------------